Pinecrest, Florida
Current Conditions -  °F | °C
As of 2:53 AM on Tuesday 21 Oct 2014 (Local Time) from KTMB Reporting Station
Overcast Overcast  
Wind Chill: 76°   Ceiling: 9000
Heat Index: 76°   Visibility: 10mi
Dew Point: 72°   Wind: 0mph
Humidity: 87%   Direction: NA
Pressure: 29.93"   Gusts: NA
Location:  25.6624°N, 80.3251°W
Report Text: KTMB 210653Z AUTO 00000KT 10SM OVC090 24/22 A2993 RMK AO2 LTG DSNT S SLP134 T02440222
Loading
Personal Weather Stations






























Interactive Weather Map
Tropical Storm Tracking
New forecast layout! Learn more

10-Day Weather Forecast

Advertisements
Track Severe Weather on mobile